»·PEaware :: N7212P KAJO-KVCV

N7212P :: KAJO-KVCV

FLIGHT INFORMATION

Flight Status: Arrived
Operator: Privately registered:
United States
More flights under this callsign
Pilot: Joe C. (19058)
Aircraft: BEECH AIRCRAFT BARON
(BE58)
More flights by this aircraft type
Origin: KAJO Corona Mun
United States
Destination: KVCV Socal Logistics
United States
More flights between these airports :: More routes between these airports
Route: PDZ V422 APLES
File this flight plan on PilotEdge
Remarks: I11 EXAM
Altitude:
(Current/Filed)
9,000ft
Speed:
(Current/Filed)
160kts
Departed: 30-Sep-18 10:56 AM
Arrived: 30-Sep-18 11:44 AM
Distance/Time
Traveled:
44nm/0:48
Distance/Time
To Go:
Arrived

Flight Plot

Page will automatically refresh every two minutes.


Map Options




Map Legend


Flown Route
Filed Route
Departure Airport
Arrival Airport
Navaid (VOR, NDB)
Fix

Horizontal Profiles

Position Reports

Time Latitude Longitude Heading Altitude Ground
Speed
30-Sep-18 10:53 33.896958 -117.596876 268 534ft 0kts
30-Sep-18 10:54 33.896958 -117.596876 268 534ft 0kts
30-Sep-18 10:55 33.896958 -117.596876 268 534ft 0kts
30-Sep-18 10:56 33.897219 -117.597238 339 534ft 9kts
30-Sep-18 10:57 33.897457 -117.597357 334 534ft 5kts
30-Sep-18 10:58 33.895080 -117.625509 289 1350ft 126kts
30-Sep-18 10:59 33.918645 -117.605950 86 2466ft 152kts
30-Sep-18 11:00 33.918642 -117.555177 87 3730ft 152kts
30-Sep-18 11:01 33.942374 -117.527333 355 4897ft 144kts
30-Sep-18 11:02 33.982283 -117.528096 32 5989ft 144kts
30-Sep-18 11:03 33.969459 -117.501403 185 6976ft 146kts
30-Sep-18 11:04 33.931971 -117.512428 229 7971ft 138kts
30-Sep-18 11:05 33.925303 -117.547408 332 8946ft 144kts
30-Sep-18 11:06 33.960106 -117.518276 46 9396ft 193kts
30-Sep-18 11:07 34.006132 -117.478929 32 9015ft 203kts
30-Sep-18 11:08 34.055133 -117.448124 30 9021ft 197kts
30-Sep-18 11:09 34.103275 -117.419037 30 9015ft 196kts
30-Sep-18 11:10 34.151968 -117.389654 21 8950ft 195kts
30-Sep-18 11:11 34.200408 -117.360464 21 8950ft 195kts
30-Sep-18 11:12 34.248714 -117.331300 22 8948ft 194kts
30-Sep-18 11:13 34.296883 -117.302409 31 8961ft 193kts
30-Sep-18 11:14 34.345351 -117.272835 30 8970ft 196kts
30-Sep-18 11:15 34.394322 -117.243160 30 8975ft 198kts
30-Sep-18 11:16 34.444220 -117.212880 26 8969ft 202kts
30-Sep-18 11:17 34.495188 -117.181901 26 8604ft 205kts
30-Sep-18 11:18 34.543222 -117.152726 28 7475ft 187kts
30-Sep-18 11:19 34.593258 -117.142913 0 6485ft 173kts
30-Sep-18 11:20 34.634641 -117.147850 346 6597ft 134kts
30-Sep-18 11:21 34.670502 -117.160964 334 6606ft 137kts
30-Sep-18 11:22 34.704718 -117.182545 322 6604ft 139kts
30-Sep-18 11:23 34.734762 -117.211400 311 6603ft 137kts
30-Sep-18 11:24 34.755781 -117.239958 301 6601ft 135kts
30-Sep-18 11:25 34.775781 -117.278748 290 6360ft 130kts
30-Sep-18 11:26 34.790527 -117.325842 279 5231ft 127kts
30-Sep-18 11:27 34.795965 -117.359748 270 4989ft 117kts
30-Sep-18 11:28 34.770048 -117.377000 176 5585ft 115kts
30-Sep-18 11:29 34.740899 -117.377896 182 5417ft 140kts
30-Sep-18 11:30 34.700064 -117.382650 186 4538ft 154kts
30-Sep-18 11:31 34.657231 -117.387113 181 3565ft 156kts
30-Sep-18 11:32 34.622996 -117.387812 179 3202ft 111kts
30-Sep-18 11:33 34.592382 -117.390019 209 3638ft 134kts
30-Sep-18 11:34 34.591479 -117.437110 276 4884ft 152kts
30-Sep-18 11:35 34.599530 -117.487201 275 6042ft 155kts
30-Sep-18 11:36 34.610908 -117.545168 285 5987ft 187kts
30-Sep-18 11:37 34.628109 -117.605402 286 6001ft 189kts
30-Sep-18 11:38 34.661599 -117.643830 27 5999ft 196kts
30-Sep-18 11:39 34.659487 -117.603044 139 5355ft 120kts
30-Sep-18 11:40 34.640862 -117.570387 123 4634ft 113kts
30-Sep-18 11:41 34.633342 -117.533217 105 4219ft 118kts
30-Sep-18 11:42 34.635500 -117.493012 86 3917ft 118kts
30-Sep-18 11:43 34.638310 -117.454815 93 3686ft 104kts
30-Sep-18 11:44 34.639881 -117.419321 92 3640ft 104kts
30-Sep-18 11:45 34.630724 -117.388745 149 3269ft 94kts
30-Sep-18 11:46 34.616029 -117.385304 90 2817ft 0kts
30-Sep-18 11:47 34.616029 -117.385304 90 2817ft 0kts
30-Sep-18 11:48 34.612830 -117.384193 181 2821ft 26kts

Navigation Log

Ident Type
1. KAJO Airport
2. PDZ Navaid
3. APLES Fix
4. KVCV Airport